sensor_id;sensor_type;location;lat;lon;timestamp;P1;durP1;ratioP1;P2;durP2;ratioP2
68593;SDS011;55563;52.416;13.548;2023-09-07T00:01:59;4.50;;;3.60;;
68593;SDS011;55563;52.416;13.548;2023-09-07T00:06:00;3.83;;;3.40;;
68593;SDS011;55563;52.416;13.548;2023-09-07T00:08:01;4.95;;;3.67;;
68593;SDS011;55563;52.416;13.548;2023-09-07T00:10:01;3.78;;;3.38;;
68593;SDS011;55563;52.416;13.548;2023-09-07T00:12:02;5.28;;;4.28;;
68593;SDS011;55563;52.416;13.548;2023-09-07T00:14:03;5.05;;;3.40;;
68593;SDS011;55563;52.416;13.548;2023-09-07T00:16:04;4.10;;;3.00;;
68593;SDS011;55563;52.416;13.548;2023-09-07T00:18:05;4.47;;;4.07;;
68593;SDS011;55563;52.416;13.548;2023-09-07T00:20:06;4.45;;;3.83;;
68593;SDS011;55563;52.416;13.548;2023-09-07T00:22:10;4.95;;;3.58;;
68593;SDS011;55563;52.416;13.548;2023-09-07T00:24:11;5.32;;;3.58;;
68593;SDS011;55563;52.416;13.548;2023-09-07T00:26:12;4.65;;;3.78;;
68593;SDS011;55563;52.416;13.548;2023-09-07T00:28:13;4.78;;;4.00;;
68593;SDS011;55563;52.416;13.548;2023-09-07T00:30:14;3.97;;;3.60;;
68593;SDS011;55563;52.416;13.548;2023-09-07T00:32:15;4.07;;;3.60;;
68593;SDS011;55563;52.416;13.548;2023-09-07T00:34:15;5.00;;;4.10;;
68593;SDS011;55563;52.416;13.548;2023-09-07T00:36:16;4.55;;;3.75;;
68593;SDS011;55563;52.416;13.548;2023-09-07T00:38:17;4.93;;;3.75;;
68593;SDS011;55563;52.416;13.548;2023-09-07T00:40:17;4.20;;;3.70;;
68593;SDS011;55563;52.416;13.548;2023-09-07T00:42:18;5.28;;;4.05;;
68593;SDS011;55563;52.416;13.548;2023-09-07T00:44:19;4.30;;;3.65;;
68593;SDS011;55563;52.416;13.548;2023-09-07T00:46:20;4.35;;;3.72;;
68593;SDS011;55563;52.416;13.548;2023-09-07T00:48:22;5.35;;;4.18;;
68593;SDS011;55563;52.416;13.548;2023-09-07T00:50:24;4.65;;;3.80;;
68593;SDS011;55563;52.416;13.548;2023-09-07T00:52:24;4.70;;;4.13;;
68593;SDS011;55563;52.416;13.548;2023-09-07T00:54:25;4.50;;;3.40;;
68593;SDS011;55563;52.416;13.548;2023-09-07T00:56:26;4.40;;;4.00;;
68593;SDS011;55563;52.416;13.548;2023-09-07T00:58:27;4.57;;;3.65;;
68593;SDS011;55563;52.416;13.548;2023-09-07T01:00:28;4.28;;;3.63;;
68593;SDS011;55563;52.416;13.548;2023-09-07T01:02:29;5.35;;;4.15;;
68593;SDS011;55563;52.416;13.548;2023-09-07T01:04:30;4.40;;;4.00;;
68593;SDS011;55563;52.416;13.548;2023-09-07T01:06:39;4.80;;;3.65;;
68593;SDS011;55563;52.416;13.548;2023-09-07T01:08:46;6.32;;;4.15;;
68593;SDS011;55563;52.416;13.548;2023-09-07T01:10:52;5.80;;;4.15;;
68593;SDS011;55563;52.416;13.548;2023-09-07T01:12:53;5.15;;;4.65;;
68593;SDS011;55563;52.416;13.548;2023-09-07T01:14:54;4.70;;;3.55;;
68593;SDS011;55563;52.416;13.548;2023-09-07T01:16:56;4.70;;;3.67;;
68593;SDS011;55563;52.416;13.548;2023-09-07T01:20:57;4.25;;;3.63;;
68593;SDS011;55563;52.416;13.548;2023-09-07T01:23:00;4.47;;;3.97;;
68593;SDS011;55563;52.416;13.548;2023-09-07T01:25:04;5.88;;;4.72;;
68593;SDS011;55563;52.416;13.548;2023-09-07T01:27:06;4.78;;;4.00;;
68593;SDS011;55563;52.416;13.548;2023-09-07T01:29:08;4.53;;;3.80;;
68593;SDS011;55563;52.416;13.548;2023-09-07T01:31:09;4.45;;;3.78;;
68593;SDS011;55563;52.416;13.548;2023-09-07T01:33:10;4.70;;;4.13;;
68593;SDS011;55563;52.416;13.548;2023-09-07T01:35:11;4.18;;;3.78;;
68593;SDS011;55563;52.416;13.548;2023-09-07T01:37:17;5.03;;;4.50;;
68593;SDS011;55563;52.416;13.548;2023-09-07T01:39:17;4.88;;;3.50;;
68593;SDS011;55563;52.416;13.548;2023-09-07T01:41:18;3.85;;;3.40;;
68593;SDS011;55563;52.416;13.548;2023-09-07T01:43:19;4.28;;;3.67;;
68593;SDS011;55563;52.416;13.548;2023-09-07T01:45:20;4.00;;;3.10;;
68593;SDS011;55563;52.416;13.548;2023-09-07T01:47:22;4.95;;;3.80;;
68593;SDS011;55563;52.416;13.548;2023-09-07T01:49:23;4.55;;;3.90;;
68593;SDS011;55563;52.416;13.548;2023-09-07T01:51:23;5.30;;;3.92;;
68593;SDS011;55563;52.416;13.548;2023-09-07T01:53:27;4.88;;;4.25;;
68593;SDS011;55563;52.416;13.548;2023-09-07T01:55:28;4.72;;;4.15;;
68593;SDS011;55563;52.416;13.548;2023-09-07T01:57:29;4.30;;;3.90;;
68593;SDS011;55563;52.416;13.548;2023-09-07T01:59:31;4.35;;;3.95;;
68593;SDS011;55563;52.416;13.548;2023-09-07T02:01:32;5.63;;;4.47;;
68593;SDS011;55563;52.416;13.548;2023-09-07T02:03:36;5.07;;;4.05;;
68593;SDS011;55563;52.416;13.548;2023-09-07T02:05:38;5.38;;;3.33;;
68593;SDS011;55563;52.416;13.548;2023-09-07T02:07:39;4.63;;;3.75;;
68593;SDS011;55563;52.416;13.548;2023-09-07T02:09:40;4.68;;;4.22;;
68593;SDS011;55563;52.416;13.548;2023-09-07T02:11:42;4.93;;;4.03;;
68593;SDS011;55563;52.416;13.548;2023-09-07T02:13:43;5.28;;;3.92;;
68593;SDS011;55563;52.416;13.548;2023-09-07T02:15:46;5.07;;;4.25;;
68593;SDS011;55563;52.416;13.548;2023-09-07T02:17:47;4.68;;;4.00;;
68593;SDS011;55563;52.416;13.548;2023-09-07T02:19:50;4.55;;;4.10;;
68593;SDS011;55563;52.416;13.548;2023-09-07T02:21:50;5.68;;;4.00;;
68593;SDS011;55563;52.416;13.548;2023-09-07T02:23:53;4.38;;;3.78;;
68593;SDS011;55563;52.416;13.548;2023-09-07T02:25:54;4.43;;;4.03;;
68593;SDS011;55563;52.416;13.548;2023-09-07T02:27:55;5.50;;;4.50;;
68593;SDS011;55563;52.416;13.548;2023-09-07T02:29:56;5.32;;;4.07;;
68593;SDS011;55563;52.416;13.548;2023-09-07T02:31:56;4.72;;;4.20;;
68593;SDS011;55563;52.416;13.548;2023-09-07T02:33:58;4.82;;;4.03;;
68593;SDS011;55563;52.416;13.548;2023-09-07T02:35:58;4.82;;;3.95;;
68593;SDS011;55563;52.416;13.548;2023-09-07T02:38:00;5.60;;;3.97;;
68593;SDS011;55563;52.416;13.548;2023-09-07T02:40:00;4.30;;;3.45;;
68593;SDS011;55563;52.416;13.548;2023-09-07T02:42:02;5.10;;;4.28;;
68593;SDS011;55563;52.416;13.548;2023-09-07T02:44:02;5.13;;;4.10;;
68593;SDS011;55563;52.416;13.548;2023-09-07T02:46:03;4.43;;;3.97;;
68593;SDS011;55563;52.416;13.548;2023-09-07T02:48:04;4.22;;;3.75;;
68593;SDS011;55563;52.416;13.548;2023-09-07T02:50:07;4.75;;;4.15;;
68593;SDS011;55563;52.416;13.548;2023-09-07T02:54:08;4.72;;;3.85;;
68593;SDS011;55563;52.416;13.548;2023-09-07T02:56:09;5.80;;;3.92;;
68593;SDS011;55563;52.416;13.548;2023-09-07T02:58:13;4.80;;;3.80;;
68593;SDS011;55563;52.416;13.548;2023-09-07T03:00:13;4.35;;;3.95;;
68593;SDS011;55563;52.416;13.548;2023-09-07T03:02:18;5.78;;;4.43;;
68593;SDS011;55563;52.416;13.548;2023-09-07T03:04:19;5.57;;;4.40;;
68593;SDS011;55563;52.416;13.548;2023-09-07T03:06:20;4.40;;;3.63;;
68593;SDS011;55563;52.416;13.548;2023-09-07T03:08:24;4.65;;;4.13;;
68593;SDS011;55563;52.416;13.548;2023-09-07T03:12:26;4.97;;;3.88;;
68593;SDS011;55563;52.416;13.548;2023-09-07T03:14:28;4.30;;;3.90;;
68593;SDS011;55563;52.416;13.548;2023-09-07T03:16:28;5.00;;;4.32;;
68593;SDS011;55563;52.416;13.548;2023-09-07T03:18:30;5.65;;;4.10;;
68593;SDS011;55563;52.416;13.548;2023-09-07T03:20:33;5.38;;;3.90;;
68593;SDS011;55563;52.416;13.548;2023-09-07T03:22:34;5.13;;;4.03;;
68593;SDS011;55563;52.416;13.548;2023-09-07T03:24:36;5.25;;;4.13;;
68593;SDS011;55563;52.416;13.548;2023-09-07T03:26:36;5.07;;;3.80;;
68593;SDS011;55563;52.416;13.548;2023-09-07T03:30:38;4.25;;;3.83;;
68593;SDS011;55563;52.416;13.548;2023-09-07T03:32:40;5.47;;;4.00;;
68593;SDS011;55563;52.416;13.548;2023-09-07T03:34:40;4.97;;;3.80;;
68593;SDS011;55563;52.416;13.548;2023-09-07T03:36:41;5.28;;;4.22;;
68593;SDS011;55563;52.416;13.548;2023-09-07T03:38:42;5.75;;;4.30;;
68593;SDS011;55563;52.416;13.548;2023-09-07T03:40:43;4.70;;;3.80;;
68593;SDS011;55563;52.416;13.548;2023-09-07T03:42:44;5.38;;;4.22;;
68593;SDS011;55563;52.416;13.548;2023-09-07T03:44:47;4.47;;;3.90;;
68593;SDS011;55563;52.416;13.548;2023-09-07T03:46:48;5.32;;;4.32;;
68593;SDS011;55563;52.416;13.548;2023-09-07T03:48:48;4.97;;;4.15;;
68593;SDS011;55563;52.416;13.548;2023-09-07T03:50:49;4.32;;;3.88;;
68593;SDS011;55563;52.416;13.548;2023-09-07T03:52:49;4.40;;;3.80;;
68593;SDS011;55563;52.416;13.548;2023-09-07T03:54:50;4.20;;;3.80;;
68593;SDS011;55563;52.416;13.548;2023-09-07T03:56:52;5.93;;;4.57;;
68593;SDS011;55563;52.416;13.548;2023-09-07T03:58:53;5.78;;;4.18;;
68593;SDS011;55563;52.416;13.548;2023-09-07T04:00:54;6.95;;;3.92;;
68593;SDS011;55563;52.416;13.548;2023-09-07T04:02:55;5.15;;;4.20;;
68593;SDS011;55563;52.416;13.548;2023-09-07T04:04:56;4.88;;;3.85;;
68593;SDS011;55563;52.416;13.548;2023-09-07T04:06:57;5.20;;;4.35;;
68593;SDS011;55563;52.416;13.548;2023-09-07T04:08:57;5.15;;;3.95;;
68593;SDS011;55563;52.416;13.548;2023-09-07T04:11:02;4.32;;;3.70;;
68593;SDS011;55563;52.416;13.548;2023-09-07T04:13:04;4.55;;;4.05;;
68593;SDS011;55563;52.416;13.548;2023-09-07T04:15:05;5.60;;;4.10;;
68593;SDS011;55563;52.416;13.548;2023-09-07T04:17:07;4.75;;;4.20;;
68593;SDS011;55563;52.416;13.548;2023-09-07T04:19:07;4.88;;;3.97;;
68593;SDS011;55563;52.416;13.548;2023-09-07T04:21:09;4.90;;;4.10;;
68593;SDS011;55563;52.416;13.548;2023-09-07T04:23:10;4.63;;;3.70;;
68593;SDS011;55563;52.416;13.548;2023-09-07T04:25:11;4.93;;;3.90;;
68593;SDS011;55563;52.416;13.548;2023-09-07T04:27:11;4.63;;;4.20;;
68593;SDS011;55563;52.416;13.548;2023-09-07T04:29:12;4.88;;;4.20;;
68593;SDS011;55563;52.416;13.548;2023-09-07T04:31:14;5.43;;;4.13;;
68593;SDS011;55563;52.416;13.548;2023-09-07T04:33:15;5.55;;;3.90;;
68593;SDS011;55563;52.416;13.548;2023-09-07T04:35:15;4.93;;;4.10;;
68593;SDS011;55563;52.416;13.548;2023-09-07T04:37:16;5.75;;;4.35;;
68593;SDS011;55563;52.416;13.548;2023-09-07T04:39:17;5.50;;;4.00;;
68593;SDS011;55563;52.416;13.548;2023-09-07T04:41:18;4.70;;;3.85;;
68593;SDS011;55563;52.416;13.548;2023-09-07T04:43:19;6.88;;;4.32;;
68593;SDS011;55563;52.416;13.548;2023-09-07T04:45:20;5.60;;;4.47;;
68593;SDS011;55563;52.416;13.548;2023-09-07T04:47:20;5.70;;;4.32;;
68593;SDS011;55563;52.416;13.548;2023-09-07T04:49:22;5.15;;;4.07;;
68593;SDS011;55563;52.416;13.548;2023-09-07T04:51:24;5.18;;;4.05;;
68593;SDS011;55563;52.416;13.548;2023-09-07T04:53:28;6.13;;;4.28;;
68593;SDS011;55563;52.416;13.548;2023-09-07T04:55:30;4.40;;;3.90;;
68593;SDS011;55563;52.416;13.548;2023-09-07T04:57:30;4.68;;;3.88;;
68593;SDS011;55563;52.416;13.548;2023-09-07T04:59:31;4.82;;;4.00;;
68593;SDS011;55563;52.416;13.548;2023-09-07T05:01:32;5.07;;;4.10;;
68593;SDS011;55563;52.416;13.548;2023-09-07T05:03:32;4.93;;;4.00;;
68593;SDS011;55563;52.416;13.548;2023-09-07T05:05:33;5.28;;;4.30;;
68593;SDS011;55563;52.416;13.548;2023-09-07T05:07:35;5.10;;;4.30;;
68593;SDS011;55563;52.416;13.548;2023-09-07T05:11:37;5.63;;;4.25;;
68593;SDS011;55563;52.416;13.548;2023-09-07T05:13:38;6.10;;;4.78;;
68593;SDS011;55563;52.416;13.548;2023-09-07T05:15:46;5.72;;;4.57;;
68593;SDS011;55563;52.416;13.548;2023-09-07T05:17:48;4.95;;;4.10;;
68593;SDS011;55563;52.416;13.548;2023-09-07T05:19:49;5.10;;;3.88;;
68593;SDS011;55563;52.416;13.548;2023-09-07T05:21:50;4.93;;;4.43;;
68593;SDS011;55563;52.416;13.548;2023-09-07T05:23:51;5.45;;;4.55;;
68593;SDS011;55563;52.416;13.548;2023-09-07T05:25:52;6.15;;;4.95;;
68593;SDS011;55563;52.416;13.548;2023-09-07T05:27:55;6.78;;;4.65;;
68593;SDS011;55563;52.416;13.548;2023-09-07T05:29:56;5.93;;;4.43;;
68593;SDS011;55563;52.416;13.548;2023-09-07T05:31:56;5.32;;;4.60;;
68593;SDS011;55563;52.416;13.548;2023-09-07T05:33:58;7.72;;;5.03;;
68593;SDS011;55563;52.416;13.548;2023-09-07T05:35:58;7.30;;;5.00;;
68593;SDS011;55563;52.416;13.548;2023-09-07T05:37:59;5.93;;;4.55;;
68593;SDS011;55563;52.416;13.548;2023-09-07T05:40:00;7.18;;;4.65;;
68593;SDS011;55563;52.416;13.548;2023-09-07T05:42:01;5.55;;;4.53;;
68593;SDS011;55563;52.416;13.548;2023-09-07T05:44:01;6.30;;;4.80;;
68593;SDS011;55563;52.416;13.548;2023-09-07T05:46:03;6.75;;;4.35;;
68593;SDS011;55563;52.416;13.548;2023-09-07T05:48:04;6.80;;;4.63;;
68593;SDS011;55563;52.416;13.548;2023-09-07T05:50:05;5.53;;;4.85;;
68593;SDS011;55563;52.416;13.548;2023-09-07T05:52:07;6.53;;;4.80;;
68593;SDS011;55563;52.416;13.548;2023-09-07T05:54:08;5.47;;;4.50;;
68593;SDS011;55563;52.416;13.548;2023-09-07T05:56:09;7.55;;;4.70;;
68593;SDS011;55563;52.416;13.548;2023-09-07T05:58:10;5.65;;;4.20;;
68593;SDS011;55563;52.416;13.548;2023-09-07T06:00:16;5.53;;;4.50;;
68593;SDS011;55563;52.416;13.548;2023-09-07T06:02:17;5.70;;;4.60;;
68593;SDS011;55563;52.416;13.548;2023-09-07T06:04:18;5.45;;;4.65;;
68593;SDS011;55563;52.416;13.548;2023-09-07T06:06:19;4.70;;;4.15;;
68593;SDS011;55563;52.416;13.548;2023-09-07T06:08:19;6.63;;;4.35;;
68593;SDS011;55563;52.416;13.548;2023-09-07T06:10:21;4.43;;;3.30;;
68593;SDS011;55563;52.416;13.548;2023-09-07T06:12:23;5.45;;;4.18;;
68593;SDS011;55563;52.416;13.548;2023-09-07T06:14:24;4.38;;;3.80;;
68593;SDS011;55563;52.416;13.548;2023-09-07T06:16:24;6.15;;;4.43;;
68593;SDS011;55563;52.416;13.548;2023-09-07T06:18:25;5.63;;;3.63;;
68593;SDS011;55563;52.416;13.548;2023-09-07T06:20:26;6.45;;;4.63;;
68593;SDS011;55563;52.416;13.548;2023-09-07T06:22:26;4.30;;;3.90;;
68593;SDS011;55563;52.416;13.548;2023-09-07T06:26:28;4.60;;;3.50;;
68593;SDS011;55563;52.416;13.548;2023-09-07T06:28:28;5.45;;;4.15;;
68593;SDS011;55563;52.416;13.548;2023-09-07T06:30:29;4.30;;;3.60;;
68593;SDS011;55563;52.416;13.548;2023-09-07T06:32:30;4.45;;;3.63;;
68593;SDS011;55563;52.416;13.548;2023-09-07T06:34:31;4.25;;;3.67;;
68593;SDS011;55563;52.416;13.548;2023-09-07T06:36:31;6.25;;;4.03;;
68593;SDS011;55563;52.416;13.548;2023-09-07T06:38:32;4.22;;;3.75;;
68593;SDS011;55563;52.416;13.548;2023-09-07T06:40:33;4.50;;;3.60;;
68593;SDS011;55563;52.416;13.548;2023-09-07T06:42:34;4.18;;;3.30;;
68593;SDS011;55563;52.416;13.548;2023-09-07T06:44:39;4.00;;;3.60;;
68593;SDS011;55563;52.416;13.548;2023-09-07T06:48:40;4.95;;;3.72;;
68593;SDS011;55563;52.416;13.548;2023-09-07T06:52:42;4.50;;;3.72;;
68593;SDS011;55563;52.416;13.548;2023-09-07T06:56:43;4.78;;;2.90;;
68593;SDS011;55563;52.416;13.548;2023-09-07T06:58:44;4.00;;;3.60;;
68593;SDS011;55563;52.416;13.548;2023-09-07T07:00:44;3.55;;;3.03;;
68593;SDS011;55563;52.416;13.548;2023-09-07T07:02:48;4.45;;;3.67;;
68593;SDS011;55563;52.416;13.548;2023-09-07T07:06:50;4.13;;;3.50;;
68593;SDS011;55563;52.416;13.548;2023-09-07T07:10:52;3.88;;;3.15;;
68593;SDS011;55563;52.416;13.548;2023-09-07T07:12:53;3.92;;;3.45;;
68593;SDS011;55563;52.416;13.548;2023-09-07T07:16:55;3.90;;;3.30;;
68593;SDS011;55563;52.416;13.548;2023-09-07T07:20:57;4.03;;;3.60;;
68593;SDS011;55563;52.416;13.548;2023-09-07T07:24:59;4.38;;;3.40;;
68593;SDS011;55563;52.416;13.548;2023-09-07T07:27:05;3.88;;;3.25;;
68593;SDS011;55563;52.416;13.548;2023-09-07T07:29:08;4.25;;;3.55;;
68593;SDS011;55563;52.416;13.548;2023-09-07T07:31:10;4.10;;;3.70;;
68593;SDS011;55563;52.416;13.548;2023-09-07T07:33:12;3.97;;;3.58;;
68593;SDS011;55563;52.416;13.548;2023-09-07T07:35:13;4.00;;;3.60;;
68593;SDS011;55563;52.416;13.548;2023-09-07T07:37:15;5.75;;;3.50;;
68593;SDS011;55563;52.416;13.548;2023-09-07T07:41:16;4.00;;;3.58;;
68593;SDS011;55563;52.416;13.548;2023-09-07T07:43:17;4.78;;;3.72;;
68593;SDS011;55563;52.416;13.548;2023-09-07T07:45:18;4.88;;;3.33;;
68593;SDS011;55563;52.416;13.548;2023-09-07T07:47:21;5.35;;;3.85;;
68593;SDS011;55563;52.416;13.548;2023-09-07T07:51:22;3.97;;;3.30;;
68593;SDS011;55563;52.416;13.548;2023-09-07T07:53:25;4.00;;;3.50;;
68593;SDS011;55563;52.416;13.548;2023-09-07T07:57:26;3.95;;;3.55;;
68593;SDS011;55563;52.416;13.548;2023-09-07T08:01:28;5.45;;;3.33;;
68593;SDS011;55563;52.416;13.548;2023-09-07T08:03:30;4.05;;;3.65;;
68593;SDS011;55563;52.416;13.548;2023-09-07T08:05:31;4.05;;;3.10;;
68593;SDS011;55563;52.416;13.548;2023-09-07T08:07:32;5.45;;;3.78;;
68593;SDS011;55563;52.416;13.548;2023-09-07T08:09:34;3.78;;;3.28;;
68593;SDS011;55563;52.416;13.548;2023-09-07T08:11:48;5.05;;;3.38;;
68593;SDS011;55563;52.416;13.548;2023-09-07T08:13:49;4.60;;;3.42;;
68593;SDS011;55563;52.416;13.548;2023-09-07T08:15:51;6.30;;;3.83;;
68593;SDS011;55563;52.416;13.548;2023-09-07T08:19:52;3.65;;;3.10;;
68593;SDS011;55563;52.416;13.548;2023-09-07T08:21:57;3.30;;;3.00;;
68593;SDS011;55563;52.416;13.548;2023-09-07T08:23:59;3.88;;;3.47;;
68593;SDS011;55563;52.416;13.548;2023-09-07T08:26:00;4.88;;;3.58;;
68593;SDS011;55563;52.416;13.548;2023-09-07T08:30:05;4.40;;;3.25;;
68593;SDS011;55563;52.416;13.548;2023-09-07T08:32:07;4.85;;;3.55;;
68593;SDS011;55563;52.416;13.548;2023-09-07T08:34:11;3.95;;;3.13;;
68593;SDS011;55563;52.416;13.548;2023-09-07T08:36:13;4.15;;;3.05;;
68593;SDS011;55563;52.416;13.548;2023-09-07T08:38:17;4.65;;;3.17;;
68593;SDS011;55563;52.416;13.548;2023-09-07T08:40:18;3.58;;;2.80;;
68593;SDS011;55563;52.416;13.548;2023-09-07T08:44:20;4.28;;;3.28;;
68593;SDS011;55563;52.416;13.548;2023-09-07T08:46:21;3.58;;;3.28;;
68593;SDS011;55563;52.416;13.548;2023-09-07T08:48:23;3.65;;;3.30;;
68593;SDS011;55563;52.416;13.548;2023-09-07T08:50:25;5.13;;;2.95;;
68593;SDS011;55563;52.416;13.548;2023-09-07T08:52:28;4.00;;;3.53;;
68593;SDS011;55563;52.416;13.548;2023-09-07T08:56:29;3.65;;;3.13;;
68593;SDS011;55563;52.416;13.548;2023-09-07T09:00:32;5.20;;;3.25;;
68593;SDS011;55563;52.416;13.548;2023-09-07T09:02:33;4.25;;;3.15;;
68593;SDS011;55563;52.416;13.548;2023-09-07T09:06:35;3.67;;;3.25;;
68593;SDS011;55563;52.416;13.548;2023-09-07T09:10:59;2.28;;;1.85;;
68593;SDS011;55563;52.416;13.548;2023-09-07T09:13:03;3.05;;;2.22;;
68593;SDS011;55563;52.416;13.548;2023-09-07T09:15:04;3.03;;;2.50;;
68593;SDS011;55563;52.416;13.548;2023-09-07T09:17:10;2.75;;;1.98;;
68593;SDS011;55563;52.416;13.548;2023-09-07T09:19:11;2.53;;;1.90;;
68593;SDS011;55563;52.416;13.548;2023-09-07T09:21:13;3.35;;;2.42;;
68593;SDS011;55563;52.416;13.548;2023-09-07T09:23:14;2.88;;;2.28;;
68593;SDS011;55563;52.416;13.548;2023-09-07T09:25:15;2.50;;;2.03;;
68593;SDS011;55563;52.416;13.548;2023-09-07T09:29:21;3.72;;;2.30;;
68593;SDS011;55563;52.416;13.548;2023-09-07T09:31:23;3.05;;;2.50;;
68593;SDS011;55563;52.416;13.548;2023-09-07T09:33:25;4.13;;;2.72;;
68593;SDS011;55563;52.416;13.548;2023-09-07T09:35:26;3.15;;;2.38;;
68593;SDS011;55563;52.416;13.548;2023-09-07T09:37:27;3.03;;;2.30;;
68593;SDS011;55563;52.416;13.548;2023-09-07T09:41:30;3.08;;;2.20;;
68593;SDS011;55563;52.416;13.548;2023-09-07T09:43:34;8.68;;;2.45;;
68593;SDS011;55563;52.416;13.548;2023-09-07T09:45:34;3.25;;;2.60;;
68593;SDS011;55563;52.416;13.548;2023-09-07T09:47:40;3.60;;;2.60;;
68593;SDS011;55563;52.416;13.548;2023-09-07T09:49:42;2.67;;;2.05;;
68593;SDS011;55563;52.416;13.548;2023-09-07T09:51:43;3.13;;;2.55;;
68593;SDS011;55563;52.416;13.548;2023-09-07T09:53:46;3.47;;;2.47;;
68593;SDS011;55563;52.416;13.548;2023-09-07T09:55:47;3.45;;;2.95;;
68593;SDS011;55563;52.416;13.548;2023-09-07T09:57:48;4.15;;;2.30;;
68593;SDS011;55563;52.416;13.548;2023-09-07T09:59:50;2.50;;;1.90;;
68593;SDS011;55563;52.416;13.548;2023-09-07T10:01:52;3.50;;;2.47;;
68593;SDS011;55563;52.416;13.548;2023-09-07T10:03:54;2.70;;;2.30;;
68593;SDS011;55563;52.416;13.548;2023-09-07T10:06:12;3.65;;;2.25;;
68593;SDS011;55563;52.416;13.548;2023-09-07T10:08:20;2.35;;;2.00;;
68593;SDS011;55563;52.416;13.548;2023-09-07T10:10:23;3.03;;;2.28;;
68593;SDS011;55563;52.416;13.548;2023-09-07T10:12:27;3.83;;;2.35;;
68593;SDS011;55563;52.416;13.548;2023-09-07T10:14:37;4.32;;;2.80;;
68593;SDS011;55563;52.416;13.548;2023-09-07T10:16:42;3.28;;;2.35;;
68593;SDS011;55563;52.416;13.548;2023-09-07T10:18:44;3.58;;;2.25;;
68593;SDS011;55563;52.416;13.548;2023-09-07T10:20:54;2.50;;;1.85;;
68593;SDS011;55563;52.416;13.548;2023-09-07T10:23:03;2.70;;;1.95;;
68593;SDS011;55563;52.416;13.548;2023-09-07T10:25:04;3.17;;;2.17;;
68593;SDS011;55563;52.416;13.548;2023-09-07T10:27:09;3.13;;;1.98;;
68593;SDS011;55563;52.416;13.548;2023-09-07T10:29:11;2.45;;;1.92;;
68593;SDS011;55563;52.416;13.548;2023-09-07T10:31:13;3.40;;;2.38;;
68593;SDS011;55563;52.416;13.548;2023-09-07T10:33:21;3.45;;;2.08;;
68593;SDS011;55563;52.416;13.548;2023-09-07T10:35:21;2.08;;;1.88;;
68593;SDS011;55563;52.416;13.548;2023-09-07T10:37:27;2.45;;;1.85;;
68593;SDS011;55563;52.416;13.548;2023-09-07T10:39:32;2.85;;;1.80;;
68593;SDS011;55563;52.416;13.548;2023-09-07T10:41:40;2.33;;;1.85;;
68593;SDS011;55563;52.416;13.548;2023-09-07T10:43:47;2.72;;;2.10;;
68593;SDS011;55563;52.416;13.548;2023-09-07T10:45:49;2.85;;;2.10;;
68593;SDS011;55563;52.416;13.548;2023-09-07T10:47:50;3.05;;;1.48;;
68593;SDS011;55563;52.416;13.548;2023-09-07T10:49:51;2.58;;;1.90;;
68593;SDS011;55563;52.416;13.548;2023-09-07T10:51:51;2.30;;;2.10;;
68593;SDS011;55563;52.416;13.548;2023-09-07T10:55:57;3.60;;;2.30;;
68593;SDS011;55563;52.416;13.548;2023-09-07T10:57:59;1.85;;;1.60;;
68593;SDS011;55563;52.416;13.548;2023-09-07T11:00:00;2.95;;;2.10;;
68593;SDS011;55563;52.416;13.548;2023-09-07T11:02:04;3.08;;;2.10;;
68593;SDS011;55563;52.416;13.548;2023-09-07T11:04:06;2.92;;;2.05;;
68593;SDS011;55563;52.416;13.548;2023-09-07T11:06:10;1.73;;;1.52;;
68593;SDS011;55563;52.416;13.548;2023-09-07T11:08:13;2.53;;;1.70;;
68593;SDS011;55563;52.416;13.548;2023-09-07T11:10:13;2.63;;;2.15;;
68593;SDS011;55563;52.416;13.548;2023-09-07T11:12:14;3.13;;;1.67;;
68593;SDS011;55563;52.416;13.548;2023-09-07T11:14:16;2.72;;;1.92;;
68593;SDS011;55563;52.416;13.548;2023-09-07T11:16:17;2.25;;;1.75;;
68593;SDS011;55563;52.416;13.548;2023-09-07T11:18:21;2.33;;;1.73;;
68593;SDS011;55563;52.416;13.548;2023-09-07T11:20:23;2.40;;;1.80;;
68593;SDS011;55563;52.416;13.548;2023-09-07T11:22:24;2.55;;;1.95;;
68593;SDS011;55563;52.416;13.548;2023-09-07T11:24:25;2.15;;;1.95;;
68593;SDS011;55563;52.416;13.548;2023-09-07T11:26:26;2.15;;;1.58;;
68593;SDS011;55563;52.416;13.548;2023-09-07T11:28:27;2.33;;;1.60;;
68593;SDS011;55563;52.416;13.548;2023-09-07T11:30:33;3.42;;;2.10;;
68593;SDS011;55563;52.416;13.548;2023-09-07T11:32:34;3.03;;;1.90;;
68593;SDS011;55563;52.416;13.548;2023-09-07T11:34:35;3.30;;;1.80;;
68593;SDS011;55563;52.416;13.548;2023-09-07T11:36:35;2.15;;;1.83;;
68593;SDS011;55563;52.416;13.548;2023-09-07T11:38:36;2.55;;;1.80;;
68593;SDS011;55563;52.416;13.548;2023-09-07T11:40:38;2.20;;;1.88;;
68593;SDS011;55563;52.416;13.548;2023-09-07T11:42:40;2.33;;;1.92;;
68593;SDS011;55563;52.416;13.548;2023-09-07T11:44:41;2.58;;;2.20;;
68593;SDS011;55563;52.416;13.548;2023-09-07T11:46:41;2.65;;;2.28;;
68593;SDS011;55563;52.416;13.548;2023-09-07T11:48:42;2.38;;;1.73;;
68593;SDS011;55563;52.416;13.548;2023-09-07T11:50:43;2.70;;;2.10;;
68593;SDS011;55563;52.416;13.548;2023-09-07T11:52:44;3.63;;;2.38;;
68593;SDS011;55563;52.416;13.548;2023-09-07T11:54:45;3.75;;;2.30;;
68593;SDS011;55563;52.416;13.548;2023-09-07T11:56:45;2.95;;;2.10;;
68593;SDS011;55563;52.416;13.548;2023-09-07T11:58:47;2.00;;;1.80;;
68593;SDS011;55563;52.416;13.548;2023-09-07T12:00:48;3.08;;;2.10;;
68593;SDS011;55563;52.416;13.548;2023-09-07T12:02:49;2.75;;;2.30;;
68593;SDS011;55563;52.416;13.548;2023-09-07T12:04:50;2.60;;;2.20;;
68593;SDS011;55563;52.416;13.548;2023-09-07T12:06:51;2.78;;;2.42;;
68593;SDS011;55563;52.416;13.548;2023-09-07T12:08:59;3.00;;;2.40;;
68593;SDS011;55563;52.416;13.548;2023-09-07T12:11:01;4.68;;;2.42;;
68593;SDS011;55563;52.416;13.548;2023-09-07T12:13:01;2.75;;;2.22;;
68593;SDS011;55563;52.416;13.548;2023-09-07T12:15:02;2.80;;;2.40;;
68593;SDS011;55563;52.416;13.548;2023-09-07T12:17:04;2.45;;;2.03;;
68593;SDS011;55563;52.416;13.548;2023-09-07T12:19:05;2.65;;;2.13;;
68593;SDS011;55563;52.416;13.548;2023-09-07T12:21:06;2.95;;;2.10;;
68593;SDS011;55563;52.416;13.548;2023-09-07T12:23:07;3.28;;;2.65;;
68593;SDS011;55563;52.416;13.548;2023-09-07T12:25:08;2.38;;;1.98;;
68593;SDS011;55563;52.416;13.548;2023-09-07T12:27:11;3.25;;;2.15;;
68593;SDS011;55563;52.416;13.548;2023-09-07T12:29:11;2.75;;;2.00;;
68593;SDS011;55563;52.416;13.548;2023-09-07T12:31:12;2.95;;;2.50;;
68593;SDS011;55563;52.416;13.548;2023-09-07T12:33:14;2.80;;;2.10;;
68593;SDS011;55563;52.416;13.548;2023-09-07T12:35:15;2.92;;;2.40;;
68593;SDS011;55563;52.416;13.548;2023-09-07T12:37:16;4.25;;;2.40;;
68593;SDS011;55563;52.416;13.548;2023-09-07T12:39:17;3.97;;;2.45;;
68593;SDS011;55563;52.416;13.548;2023-09-07T12:41:17;4.40;;;2.40;;
68593;SDS011;55563;52.416;13.548;2023-09-07T12:43:18;3.45;;;2.28;;
68593;SDS011;55563;52.416;13.548;2023-09-07T12:45:19;2.60;;;1.95;;
68593;SDS011;55563;52.416;13.548;2023-09-07T12:47:20;1.88;;;1.67;;
68593;SDS011;55563;52.416;13.548;2023-09-07T12:49:20;3.17;;;2.10;;
68593;SDS011;55563;52.416;13.548;2023-09-07T12:51:21;2.00;;;1.80;;
68593;SDS011;55563;52.416;13.548;2023-09-07T12:53:21;1.75;;;1.42;;
68593;SDS011;55563;52.416;13.548;2023-09-07T12:55:27;3.35;;;2.10;;
68593;SDS011;55563;52.416;13.548;2023-09-07T12:57:30;1.90;;;1.52;;
68593;SDS011;55563;52.416;13.548;2023-09-07T12:59:31;2.15;;;1.95;;
68593;SDS011;55563;52.416;13.548;2023-09-07T13:01:31;1.75;;;1.60;;